createdAt,value
2023-01-28T00:01:29.821Z,20.60
2023-01-28T00:06:35.799Z,24.30
2023-01-28T00:11:43.786Z,24.10
2023-01-28T00:16:48.056Z,25.40
2023-01-28T00:21:56.924Z,25.30
2023-01-28T00:26:59.741Z,23.60
2023-01-28T00:32:02.623Z,24.50
2023-01-28T00:37:27.859Z,21.90
2023-01-28T00:42:46.767Z,24.50
2023-01-28T00:52:55.092Z,24.50
2023-01-28T00:58:17.661Z,23.60
2023-01-28T01:03:26.367Z,25.30
2023-01-28T01:08:41.099Z,23.60
2023-01-28T01:13:58.130Z,23.90
2023-01-28T01:19:01.484Z,25.50
2023-01-28T01:24:07.008Z,24.90
2023-01-28T01:29:09.944Z,19.80
2023-01-28T01:34:19.762Z,20.50
2023-01-28T01:39:24.701Z,21.00
2023-01-28T01:45:18.620Z,19.90
2023-01-28T01:50:36.688Z,16.50
2023-01-28T01:55:43.557Z,17.30
2023-01-28T02:00:49.083Z,17.40
2023-01-28T02:05:54.983Z,15.60
2023-01-28T02:11:05.401Z,18.90
2023-01-28T02:16:09.399Z,17.30
2023-01-28T02:21:51.230Z,17.60
2023-01-28T02:27:25.300Z,18.00
2023-01-28T02:32:54.191Z,16.40
2023-01-28T02:38:19.476Z,15.10
2023-01-28T02:43:40.352Z,15.40
2023-01-28T02:48:43.103Z,18.70
2023-01-28T02:54:12.910Z,16.50
2023-01-28T02:59:31.398Z,16.60
2023-01-28T03:05:26.687Z,17.50
2023-01-28T03:10:29.786Z,15.60
2023-01-28T03:16:00.047Z,15.40
2023-01-28T03:21:43.933Z,16.60
2023-01-28T03:27:33.752Z,18.00
2023-01-28T03:33:06.526Z,14.20
2023-01-28T03:38:23.791Z,15.70
2023-01-28T03:43:42.829Z,16.60
2023-01-28T03:48:47.960Z,17.30
2023-01-28T03:53:54.328Z,17.80
2023-01-28T03:59:08.373Z,16.10
2023-01-28T04:04:22.900Z,15.90
2023-01-28T04:09:29.770Z,14.30
2023-01-28T04:14:53.225Z,13.80
2023-01-28T04:20:06.952Z,12.50
2023-01-28T04:25:10.148Z,11.80
2023-01-28T04:30:12.863Z,11.90
2023-01-28T04:35:32.750Z,11.70
2023-01-28T04:41:24.387Z,12.70
2023-01-28T04:46:33.275Z,11.50
2023-01-28T04:51:49.143Z,10.50
2023-01-28T04:57:11.139Z,9.90
2023-01-28T05:02:19.086Z,9.50
2023-01-28T05:07:35.876Z,8.50
2023-01-28T05:12:50.223Z,9.50
2023-01-28T05:18:00.905Z,8.80
2023-01-28T05:23:16.391Z,12.20
2023-01-28T05:28:29.363Z,12.80
2023-01-28T05:33:42.606Z,12.10
2023-01-28T05:38:47.570Z,10.80
2023-01-28T05:43:50.613Z,10.60
2023-01-28T05:49:08.640Z,10.10
2023-01-28T05:54:58.613Z,9.30
2023-01-28T06:00:16.177Z,10.60
2023-01-28T06:05:32.034Z,10.40
2023-01-28T06:10:47.448Z,11.30
2023-01-28T06:15:54.995Z,11.70
2023-01-28T06:21:44.018Z,12.40
2023-01-28T06:26:47.825Z,12.70
2023-01-28T06:31:53.493Z,12.30
2023-01-28T06:37:05.090Z,11.30
2023-01-28T06:42:09.678Z,12.00
2023-01-28T06:47:12.344Z,12.90
2023-01-28T06:52:15.269Z,13.80
2023-01-28T06:57:17.764Z,15.90
2023-01-28T07:02:20.652Z,12.50
2023-01-28T07:07:31.843Z,10.30
2023-01-28T07:12:37.206Z,11.40
2023-01-28T07:17:43.267Z,12.00
2023-01-28T07:22:56.126Z,11.80
2023-01-28T07:27:58.608Z,11.60
2023-01-28T07:33:01.686Z,11.30
2023-01-28T07:38:06.443Z,13.00
2023-01-28T07:43:14.359Z,13.70
2023-01-28T07:48:24.251Z,12.40
2023-01-28T07:53:34.419Z,13.40
2023-01-28T07:58:39.354Z,11.00
2023-01-28T08:03:46.923Z,13.00
2023-01-28T08:08:51.548Z,12.50
2023-01-28T08:13:53.765Z,11.00
2023-01-28T08:18:58.855Z,10.60
2023-01-28T08:24:03.324Z,11.30
2023-01-28T08:29:06.327Z,11.30
2023-01-28T08:34:14.470Z,10.90
2023-01-28T08:39:25.849Z,10.80
2023-01-28T08:44:37.043Z,10.90
2023-01-28T08:49:42.650Z,10.60
2023-01-28T08:54:45.124Z,11.60
2023-01-28T08:59:53.256Z,9.10
2023-01-28T09:04:58.616Z,9.40
2023-01-28T09:10:01.243Z,10.90
2023-01-28T09:15:05.108Z,10.20
2023-01-28T09:20:33.910Z,12.00
2023-01-28T09:25:37.049Z,9.70
2023-01-28T09:30:42.867Z,9.60
2023-01-28T09:35:45.556Z,10.20
2023-01-28T09:40:51.428Z,10.70
2023-01-28T09:45:58.236Z,9.90
2023-01-28T09:51:01.863Z,10.00
2023-01-28T09:56:14.395Z,10.90
2023-01-28T10:01:19.973Z,11.20
2023-01-28T10:06:51.081Z,10.00
2023-01-28T10:12:37.374Z,11.40
2023-01-28T10:17:46.130Z,9.30
2023-01-28T10:23:02.712Z,10.10
2023-01-28T10:28:21.091Z,9.80
2023-01-28T10:33:28.969Z,11.30
2023-01-28T10:38:31.923Z,10.70
2023-01-28T10:43:37.676Z,9.90
2023-01-28T10:48:47.360Z,9.70
2023-01-28T10:53:49.682Z,9.20
2023-01-28T10:59:03.169Z,9.60
2023-01-28T11:04:07.579Z,11.50
2023-01-28T11:09:22.401Z,11.60
2023-01-28T11:14:28.104Z,11.90
2023-01-28T11:19:39.019Z,9.30
2023-01-28T11:24:43.147Z,9.80
2023-01-28T11:29:46.543Z,8.10
2023-01-28T11:34:51.588Z,8.80
2023-01-28T11:40:24.313Z,9.10
2023-01-28T11:45:42.426Z,9.00
2023-01-28T11:50:58.361Z,9.60
2023-01-28T11:56:45.485Z,9.20
2023-01-28T12:02:21.489Z,9.60
2023-01-28T12:07:36.094Z,10.60
2023-01-28T12:12:45.703Z,10.70
2023-01-28T12:17:56.760Z,10.90
2023-01-28T12:23:24.609Z,10.00
2023-01-28T12:28:41.734Z,8.80
2023-01-28T12:34:38.704Z,10.50
2023-01-28T12:40:33.693Z,10.80
2023-01-28T12:45:51.849Z,10.70
2023-01-28T12:51:02.423Z,11.30
2023-01-28T12:56:16.944Z,12.40
2023-01-28T13:01:25.861Z,12.00
2023-01-28T13:06:33.748Z,12.40
2023-01-28T13:11:37.164Z,12.60
2023-01-28T13:16:39.579Z,13.60
2023-01-28T13:21:49.156Z,11.30
2023-01-28T13:26:55.068Z,13.60
2023-01-28T13:32:03.391Z,14.60
2023-01-28T13:37:28.549Z,14.00
2023-01-28T13:42:35.382Z,11.00
2023-01-28T13:47:41.022Z,11.40
2023-01-28T13:52:50.716Z,11.60
2023-01-28T13:58:31.619Z,13.10
2023-01-28T14:03:58.700Z,13.10
2023-01-28T14:09:31.914Z,14.50
2023-01-28T14:15:16.582Z,12.80
2023-01-28T14:20:32.735Z,15.00
2023-01-28T14:26:00.055Z,16.50
2023-01-28T14:31:32.918Z,16.00
2023-01-28T14:36:40.935Z,15.80
2023-01-28T14:41:48.267Z,16.50
2023-01-28T14:47:17.908Z,17.30
2023-01-28T14:52:25.429Z,18.40
2023-01-28T14:57:44.868Z,19.00
2023-01-28T15:02:46.909Z,18.30
2023-01-28T15:07:49.725Z,18.80
2023-01-28T15:13:00.296Z,19.90
2023-01-28T15:18:25.508Z,19.10
2023-01-28T15:23:36.793Z,18.70
2023-01-28T15:28:40.666Z,17.40
2023-01-28T15:33:42.954Z,17.90
2023-01-28T15:38:45.189Z,19.30
2023-01-28T15:43:49.755Z,18.70
2023-01-28T15:49:04.028Z,20.30
2023-01-28T15:54:11.099Z,18.10
2023-01-28T15:59:16.136Z,20.30
2023-01-28T16:04:30.025Z,21.70
2023-01-28T16:09:34.726Z,21.80
2023-01-28T16:14:49.702Z,21.80
2023-01-28T16:19:59.114Z,22.90
2023-01-28T16:25:01.979Z,20.40
2023-01-28T16:30:06.094Z,21.00
2023-01-28T16:35:23.270Z,20.80
2023-01-28T16:40:25.613Z,20.10
2023-01-28T16:45:27.860Z,21.70
2023-01-28T16:50:32.682Z,22.90
2023-01-28T16:55:35.224Z,23.50
2023-01-28T17:00:37.314Z,22.90
2023-01-28T17:05:39.493Z,23.40
2023-01-28T17:10:41.551Z,23.60
2023-01-28T17:15:43.477Z,21.50
2023-01-28T17:20:45.488Z,23.30
2023-01-28T17:25:47.608Z,22.60
2023-01-28T17:30:49.987Z,23.90
2023-01-28T17:35:52.836Z,23.60
2023-01-28T17:40:54.986Z,23.30
2023-01-28T17:45:57.250Z,24.50
2023-01-28T17:50:59.691Z,21.90
2023-01-28T17:56:01.634Z,18.60
2023-01-28T18:01:10.192Z,18.30
2023-01-28T18:06:14.692Z,20.10
2023-01-28T18:11:21.557Z,18.60
2023-01-28T18:16:24.845Z,18.30
2023-01-28T18:21:51.774Z,17.10
2023-01-28T18:26:59.758Z,12.80
2023-01-28T18:32:03.229Z,11.40
2023-01-28T18:37:07.653Z,11.10
2023-01-28T18:42:10.020Z,11.10
2023-01-28T18:47:12.092Z,10.80
2023-01-28T18:52:14.677Z,12.40
2023-01-28T18:57:26.068Z,12.00
2023-01-28T19:02:28.622Z,13.70
2023-01-28T19:07:31.725Z,15.00
2023-01-28T19:12:37.158Z,14.80
2023-01-28T19:17:39.597Z,13.00
2023-01-28T19:22:44.402Z,12.60
2023-01-28T19:27:46.420Z,13.50
2023-01-28T19:32:48.636Z,13.20
2023-01-28T19:37:51.017Z,13.30
2023-01-28T19:42:53.966Z,12.90
2023-01-28T19:47:59.323Z,12.30
2023-01-28T19:53:01.493Z,13.90
2023-01-28T19:58:04.126Z,15.30
2023-01-28T20:03:08.321Z,14.00
2023-01-28T20:08:10.886Z,13.70
2023-01-28T20:13:16.153Z,13.80
2023-01-28T20:18:18.983Z,12.70
2023-01-28T20:23:36.081Z,13.40
2023-01-28T20:28:41.947Z,13.00
2023-01-28T20:33:49.844Z,13.70
2023-01-28T20:38:52.044Z,14.00
2023-01-28T20:43:55.058Z,14.60
2023-01-28T20:48:59.326Z,14.50
2023-01-28T20:54:02.014Z,15.20
2023-01-28T20:59:06.145Z,12.80
2023-01-28T21:04:10.763Z,13.10
2023-01-28T21:09:13.086Z,14.30
2023-01-28T21:14:17.223Z,15.20
2023-01-28T21:19:21.847Z,16.00
2023-01-28T21:24:24.236Z,15.40
2023-01-28T21:29:26.830Z,13.60
2023-01-28T21:34:33.261Z,15.40
2023-01-28T21:39:35.810Z,16.80
2023-01-28T21:44:37.710Z,15.60
2023-01-28T21:49:40.468Z,14.80
2023-01-28T21:54:45.492Z,17.20
2023-01-28T21:59:47.801Z,18.20
2023-01-28T22:04:50.571Z,15.80
2023-01-28T22:09:58.214Z,10.00
2023-01-28T22:15:10.625Z,10.60
2023-01-28T22:20:13.887Z,10.30
2023-01-28T22:25:16.894Z,11.20
2023-01-28T22:30:19.214Z,11.20
2023-01-28T22:35:24.094Z,9.60
2023-01-28T22:40:26.065Z,10.60
2023-01-28T22:45:28.919Z,11.40
2023-01-28T22:50:31.255Z,10.80
2023-01-28T22:55:33.743Z,10.70
2023-01-28T23:00:35.862Z,9.80
2023-01-28T23:05:38.549Z,10.60
2023-01-28T23:10:47.133Z,10.70
2023-01-28T23:16:08.981Z,10.30
2023-01-28T23:21:40.609Z,10.50
2023-01-28T23:26:42.545Z,10.90
2023-01-28T23:31:47.415Z,11.30
2023-01-28T23:36:50.617Z,11.40
2023-01-28T23:41:53.269Z,11.70
2023-01-28T23:46:56.343Z,10.30
2023-01-28T23:51:58.645Z,11.10
2023-01-28T23:57:01.195Z,10.40
